createdAt,value
2024-02-02T00:04:49.065Z,5.40
2024-02-02T00:09:49.310Z,4.60
2024-02-02T00:14:49.142Z,5.50
2024-02-02T00:19:49.216Z,5.10
2024-02-02T00:24:51.382Z,4.00
2024-02-02T00:29:49.007Z,4.90
2024-02-02T00:34:49.234Z,5.50
2024-02-02T00:39:49.239Z,4.80
2024-02-02T00:44:49.046Z,4.60
2024-02-02T00:49:49.089Z,5.10
2024-02-02T00:54:49.142Z,5.40
2024-02-02T00:59:50.436Z,4.70
2024-02-02T01:04:48.967Z,5.30
2024-02-02T01:09:49.400Z,5.00
2024-02-02T01:14:49.057Z,4.60
2024-02-02T01:19:49.765Z,4.30
2024-02-02T01:24:51.194Z,4.70
2024-02-02T01:29:49.061Z,4.70
2024-02-02T01:34:49.120Z,5.00
2024-02-02T01:39:49.107Z,4.80
2024-02-02T01:44:49.918Z,5.60
2024-02-02T01:49:49.002Z,5.80
2024-02-02T01:54:49.208Z,5.10
2024-02-02T01:59:49.348Z,4.30
2024-02-02T02:04:48.904Z,3.60
2024-02-02T02:09:51.003Z,4.80
2024-02-02T02:14:49.023Z,4.50
2024-02-02T02:19:49.526Z,4.10
2024-02-02T02:24:49.082Z,4.70
2024-02-02T02:29:48.953Z,4.10
2024-02-02T02:34:49.046Z,3.90
2024-02-02T02:39:50.909Z,4.10
2024-02-02T02:44:49.061Z,3.50
2024-02-02T02:49:48.967Z,4.50
2024-02-02T02:54:51.001Z,4.30
2024-02-02T02:59:48.907Z,4.00
2024-02-02T03:04:48.878Z,4.30
2024-02-02T03:09:50.525Z,4.00
2024-02-02T03:14:48.947Z,4.80
2024-02-02T03:19:48.839Z,4.30
2024-02-02T03:24:50.950Z,5.00
2024-02-02T03:29:48.922Z,4.90
2024-02-02T03:34:48.949Z,4.40
2024-02-02T03:39:51.379Z,4.60
2024-02-02T03:44:48.789Z,4.20
2024-02-02T03:49:48.931Z,5.20
2024-02-02T03:54:49.325Z,5.00
2024-02-02T03:59:48.888Z,4.00
2024-02-02T04:04:48.842Z,3.90
2024-02-02T04:09:50.970Z,4.00
2024-02-02T04:14:48.845Z,3.70
2024-02-02T04:19:48.843Z,4.60
2024-02-02T04:24:50.508Z,4.70
2024-02-02T04:29:48.722Z,4.90
2024-02-02T04:34:48.986Z,5.20
2024-02-02T04:39:49.086Z,5.20
2024-02-02T04:44:48.766Z,4.90
2024-02-02T04:49:49.484Z,4.40
2024-02-02T04:54:53.723Z,5.30
2024-02-02T04:59:48.766Z,5.80
2024-02-02T05:04:48.745Z,5.20
2024-02-02T05:09:49.172Z,4.50
2024-02-02T05:14:49.283Z,6.10
2024-02-02T05:19:49.921Z,4.80
2024-02-02T05:24:49.619Z,4.50
2024-02-02T05:29:49.115Z,5.70
2024-02-02T05:34:48.845Z,4.50
2024-02-02T05:39:49.066Z,4.40
2024-02-02T05:44:48.661Z,5.30
2024-02-02T05:49:49.609Z,5.60
2024-02-02T05:54:48.939Z,5.70
2024-02-02T05:59:49.324Z,4.70
2024-02-02T06:04:48.967Z,6.00
2024-02-02T06:09:49.003Z,4.50
2024-02-02T06:14:48.619Z,5.30
2024-02-02T06:19:48.792Z,5.30
2024-02-02T06:24:48.988Z,6.30
2024-02-02T06:29:49.205Z,6.90
2024-02-02T06:34:51.794Z,8.90
2024-02-02T06:39:48.992Z,4.70
2024-02-02T06:44:50.823Z,6.70
2024-02-02T06:49:49.072Z,11.60
2024-02-02T06:54:50.649Z,5.70
2024-02-02T06:59:49.613Z,5.80
2024-02-02T07:04:49.160Z,5.80
2024-02-02T07:09:51.529Z,5.00
2024-02-02T07:14:50.323Z,5.00
2024-02-02T07:19:49.303Z,4.80
2024-02-02T07:24:49.006Z,4.50
2024-02-02T07:29:49.279Z,4.40
2024-02-02T07:34:50.674Z,5.00
2024-02-02T07:39:49.095Z,6.10
2024-02-02T07:44:48.581Z,4.70
2024-02-02T07:49:48.735Z,5.60
2024-02-02T07:54:48.827Z,6.30
2024-02-02T07:59:48.534Z,5.60
2024-02-02T08:04:48.710Z,5.00
2024-02-02T08:09:48.797Z,5.20
2024-02-02T08:14:48.517Z,5.30
2024-02-02T08:19:48.900Z,5.30
2024-02-02T08:24:50.375Z,5.80
2024-02-02T08:29:48.766Z,5.60
2024-02-02T08:34:48.567Z,5.30
2024-02-02T08:39:53.018Z,4.60
2024-02-02T08:44:49.170Z,5.20
2024-02-02T08:49:53.674Z,5.30
2024-02-02T08:54:49.266Z,6.80
2024-02-02T08:59:52.700Z,9.70
2024-02-02T09:05:01.447Z,8.30
2024-02-02T09:09:48.588Z,14.20
2024-02-02T09:14:48.568Z,15.50
2024-02-02T09:19:53.362Z,12.90
2024-02-02T09:24:49.872Z,13.70
2024-02-02T09:29:49.312Z,6.80
2024-02-02T09:34:49.059Z,10.50
2024-02-02T09:39:51.317Z,11.80
2024-02-02T09:44:53.166Z,9.10
2024-02-02T09:49:57.233Z,7.20
2024-02-02T09:54:58.385Z,9.80
2024-02-02T10:00:01.574Z,16.70
2024-02-02T10:05:00.256Z,31.80
2024-02-02T10:10:01.500Z,42.80
2024-02-02T10:15:04.461Z,24.90
2024-02-02T10:20:01.479Z,17.50
2024-02-02T10:25:00.396Z,10.70
2024-02-02T10:30:05.727Z,11.50
2024-02-02T10:34:57.210Z,13.40
2024-02-02T10:40:00.530Z,6.80
2024-02-02T10:45:03.309Z,14.50
2024-02-02T10:49:57.272Z,12.00
2024-02-02T10:55:00.957Z,11.40
2024-02-02T11:00:02.648Z,8.60
2024-02-02T11:04:59.726Z,7.40
2024-02-02T11:09:56.050Z,7.10
2024-02-02T11:15:02.099Z,10.00
2024-02-02T11:20:01.445Z,9.50
2024-02-02T11:24:57.385Z,6.80
2024-02-02T11:29:56.977Z,6.80
2024-02-02T11:34:54.887Z,6.70
2024-02-02T11:39:56.732Z,19.40
2024-02-02T11:44:49.764Z,13.60
2024-02-02T11:49:56.183Z,8.70
2024-02-02T11:54:55.861Z,17.70
2024-02-02T11:59:54.347Z,8.80
2024-02-02T12:04:55.132Z,6.40
2024-02-02T12:09:51.344Z,9.60
2024-02-02T12:14:51.019Z,8.40
2024-02-02T12:19:49.299Z,6.80
2024-02-02T12:24:48.808Z,6.10
2024-02-02T12:29:48.466Z,7.70
2024-02-02T12:34:50.442Z,7.60
2024-02-02T12:39:52.320Z,6.80
2024-02-02T12:44:49.578Z,6.30
2024-02-02T12:49:48.730Z,8.80
2024-02-02T12:54:51.425Z,6.90
2024-02-02T12:59:48.493Z,6.90
2024-02-02T13:04:51.703Z,10.20
2024-02-02T13:09:50.448Z,6.80
2024-02-02T13:14:48.427Z,6.20
2024-02-02T13:19:57.858Z,6.40
2024-02-02T13:24:50.647Z,6.10
2024-02-02T13:29:51.629Z,10.10
2024-02-02T13:34:49.101Z,8.10
2024-02-02T13:39:50.230Z,6.90
2024-02-02T13:44:48.406Z,6.70
2024-02-02T13:49:55.477Z,7.10
2024-02-02T13:54:53.522Z,7.00
2024-02-02T13:59:49.132Z,7.80
2024-02-02T14:04:48.739Z,9.20
2024-02-02T14:09:50.221Z,10.30
2024-02-02T14:14:48.659Z,7.40
2024-02-02T14:20:00.151Z,8.10
2024-02-02T14:24:51.337Z,8.40
2024-02-02T14:29:49.038Z,9.40
2024-02-02T14:34:48.701Z,7.90
2024-02-02T14:39:50.457Z,7.70
2024-02-02T14:44:48.454Z,7.70
2024-02-02T14:49:48.702Z,8.60
2024-02-02T14:54:48.770Z,7.60
2024-02-02T14:59:51.690Z,7.70
2024-02-02T15:04:52.073Z,8.40
2024-02-02T15:09:49.955Z,8.60
2024-02-02T15:14:48.460Z,9.00
2024-02-02T15:19:48.429Z,8.20
2024-02-02T15:24:48.349Z,8.50
2024-02-02T15:29:48.281Z,11.00
2024-02-02T15:34:50.427Z,23.40
2024-02-02T15:39:56.259Z,11.90
2024-02-02T15:44:48.419Z,8.40
2024-02-02T15:49:50.609Z,8.80
2024-02-02T15:54:48.456Z,8.90
2024-02-02T15:59:48.266Z,10.90
2024-02-02T16:04:54.638Z,9.50
2024-02-02T16:09:48.295Z,10.60
2024-02-02T16:14:48.294Z,9.10
2024-02-02T16:19:48.638Z,10.10
2024-02-02T16:24:48.504Z,10.90
2024-02-02T16:29:48.254Z,11.60
2024-02-02T16:34:48.693Z,11.60
2024-02-02T16:39:48.298Z,12.00
2024-02-02T16:44:50.528Z,11.90
2024-02-02T16:49:49.973Z,13.00
2024-02-02T16:54:48.357Z,12.60
2024-02-02T16:59:48.580Z,12.60
2024-02-02T17:04:48.453Z,12.90
2024-02-02T17:09:48.359Z,13.60
2024-02-02T17:14:48.471Z,13.10
2024-02-02T17:19:50.776Z,10.80
2024-02-02T17:24:48.472Z,11.20
2024-02-02T17:29:48.297Z,11.80
2024-02-02T17:34:49.009Z,9.30
2024-02-02T17:39:49.659Z,9.90
2024-02-02T17:44:48.319Z,9.30
2024-02-02T17:49:51.812Z,10.40
2024-02-02T17:54:48.220Z,10.30
2024-02-02T17:59:48.235Z,10.50
2024-02-02T18:04:49.655Z,11.00
2024-02-02T18:09:48.325Z,10.60
2024-02-02T18:14:48.146Z,11.90
2024-02-02T18:19:48.330Z,16.90
2024-02-02T18:24:48.428Z,12.90
2024-02-02T18:29:52.012Z,12.20
2024-02-02T18:34:48.698Z,12.40
2024-02-02T18:39:48.276Z,13.30
2024-02-02T18:44:48.104Z,13.00
2024-02-02T18:49:48.469Z,14.30
2024-02-02T18:54:48.135Z,14.60
2024-02-02T18:59:48.136Z,14.60
2024-02-02T19:04:48.529Z,14.80
2024-02-02T19:09:48.162Z,15.80
2024-02-02T19:14:48.155Z,15.00
2024-02-02T19:19:49.198Z,15.20
2024-02-02T19:24:48.173Z,14.00
2024-02-02T19:29:48.106Z,15.60
2024-02-02T19:34:48.634Z,15.30
2024-02-02T19:39:48.189Z,16.90
2024-02-02T19:44:48.351Z,15.50
2024-02-02T19:49:48.271Z,15.40
2024-02-02T19:54:48.229Z,15.40
2024-02-02T19:59:48.014Z,17.10
2024-02-02T20:04:49.956Z,16.10
2024-02-02T20:09:48.647Z,17.00
2024-02-02T20:14:48.107Z,16.00
2024-02-02T20:19:48.508Z,16.80
2024-02-02T20:24:48.329Z,17.00
2024-02-02T20:29:48.150Z,16.90
2024-02-02T20:34:48.197Z,20.50
2024-02-02T20:39:48.439Z,18.20
2024-02-02T20:44:49.252Z,17.40
2024-02-02T20:49:48.074Z,18.20
2024-02-02T20:54:48.579Z,15.20
2024-02-02T20:59:48.363Z,17.50
2024-02-02T21:04:48.138Z,18.00
2024-02-02T21:09:49.041Z,19.10
2024-02-02T21:14:47.976Z,16.70
2024-02-02T21:19:50.252Z,18.60
2024-02-02T21:24:48.334Z,17.90
2024-02-02T21:29:48.221Z,17.20
2024-02-02T21:34:48.023Z,18.90
2024-02-02T21:39:50.154Z,18.40
2024-02-02T21:44:48.122Z,17.00
2024-02-02T21:49:48.151Z,16.70
2024-02-02T21:54:49.763Z,16.30
2024-02-02T21:59:49.994Z,16.60
2024-02-02T22:04:52.815Z,15.30
2024-02-02T22:09:48.464Z,15.50
2024-02-02T22:14:48.175Z,15.90
2024-02-02T22:19:48.201Z,15.50
2024-02-02T22:24:50.215Z,16.60
2024-02-02T22:29:48.045Z,16.30
2024-02-02T22:34:48.443Z,17.10
2024-02-02T22:39:48.496Z,17.30
2024-02-02T22:44:48.176Z,15.70
2024-02-02T22:49:48.119Z,17.40
2024-02-02T22:54:48.248Z,17.60
2024-02-02T22:59:53.573Z,16.60
2024-02-02T23:04:48.030Z,17.30
2024-02-02T23:09:50.510Z,16.70
2024-02-02T23:14:47.947Z,17.30
2024-02-02T23:19:48.154Z,16.00
2024-02-02T23:24:48.159Z,16.90
2024-02-02T23:29:47.976Z,15.40
2024-02-02T23:34:47.914Z,15.10
2024-02-02T23:39:49.863Z,16.40
2024-02-02T23:44:48.050Z,15.30
2024-02-02T23:49:48.016Z,15.10
2024-02-02T23:54:49.827Z,14.10
2024-02-02T23:59:47.871Z,14.50
